createdAt,value
2023-02-18T00:00:22.875Z,11.95
2023-02-18T00:02:55.620Z,8.30
2023-02-18T00:05:28.694Z,5.65
2023-02-18T00:08:01.401Z,7.28
2023-02-18T00:10:33.693Z,2.65
2023-02-18T00:13:05.981Z,4.85
2023-02-18T00:15:38.963Z,5.18
2023-02-18T00:18:11.283Z,4.68
2023-02-18T00:20:43.599Z,4.45
2023-02-18T00:23:15.852Z,2.85
2023-02-18T00:25:48.163Z,2.75
2023-02-18T00:28:20.416Z,2.97
2023-02-18T00:30:53.782Z,5.82
2023-02-18T00:33:26.130Z,5.57
2023-02-18T00:36:01.711Z,5.18
2023-02-18T00:38:34.415Z,4.00
2023-02-18T00:41:06.759Z,5.20
2023-02-18T00:43:39.695Z,4.88
2023-02-18T00:46:12.855Z,4.05
2023-02-18T00:48:45.167Z,4.63
2023-02-18T00:51:17.718Z,3.35
2023-02-18T00:53:50.064Z,3.95
2023-02-18T00:56:22.899Z,4.05
2023-02-18T00:58:55.165Z,3.33
2023-02-18T01:01:28.162Z,2.85
2023-02-18T01:04:00.898Z,2.90
2023-02-18T01:06:33.502Z,3.80
2023-02-18T01:09:08.085Z,3.60
2023-02-18T01:11:40.383Z,3.17
2023-02-18T01:14:12.697Z,3.00
2023-02-18T01:16:45.639Z,3.63
2023-02-18T01:19:17.932Z,3.15
2023-02-18T01:21:50.224Z,3.63
2023-02-18T01:24:22.703Z,3.20
2023-02-18T01:26:55.442Z,2.83
2023-02-18T01:29:27.748Z,3.25
2023-02-18T01:32:01.618Z,3.30
2023-02-18T01:34:34.105Z,3.17
2023-02-18T01:37:06.381Z,4.15
2023-02-18T01:39:41.090Z,4.32
2023-02-18T01:42:19.693Z,3.80
2023-02-18T01:44:52.382Z,4.10
2023-02-18T01:47:25.350Z,4.93
2023-02-18T01:49:57.667Z,4.35
2023-02-18T01:52:32.354Z,4.80
2023-02-18T01:55:05.860Z,4.15
2023-02-18T01:57:38.763Z,4.22
2023-02-18T02:00:15.367Z,3.67
2023-02-18T02:02:51.253Z,3.42
2023-02-18T02:05:23.590Z,2.45
2023-02-18T02:07:55.998Z,2.75
2023-02-18T02:10:45.952Z,3.47
2023-02-18T02:13:29.401Z,3.88
2023-02-18T02:16:08.989Z,6.47
2023-02-18T02:22:04.666Z,4.57
2023-02-18T02:25:00.382Z,3.03
2023-02-18T02:27:57.562Z,2.00
2023-02-18T02:30:52.838Z,2.85
2023-02-18T02:34:03.812Z,2.53
2023-02-18T02:36:43.476Z,2.28
2023-02-18T02:41:58.303Z,2.35
2023-02-18T02:44:38.711Z,3.33
2023-02-18T02:47:28.278Z,2.05
2023-02-18T02:50:06.403Z,3.13
2023-02-18T02:52:45.735Z,2.38
2023-02-18T02:55:18.060Z,3.22
2023-02-18T02:57:53.898Z,3.35
2023-02-18T03:00:44.690Z,2.47
2023-02-18T03:03:42.726Z,2.83
2023-02-18T03:06:32.950Z,2.40
2023-02-18T03:09:13.746Z,3.05
2023-02-18T03:11:53.909Z,2.80
2023-02-18T03:14:29.922Z,3.38
2023-02-18T03:17:11.002Z,2.65
2023-02-18T03:22:24.105Z,2.45
2023-02-18T03:24:59.729Z,3.30
2023-02-18T03:27:35.608Z,2.88
2023-02-18T03:30:15.787Z,2.75
2023-02-18T03:32:51.729Z,3.20
2023-02-18T03:35:25.889Z,3.05
2023-02-18T03:38:02.298Z,3.25
2023-02-18T03:40:36.141Z,2.35
2023-02-18T03:43:09.333Z,3.33
2023-02-18T03:45:41.970Z,2.38
2023-02-18T03:48:14.535Z,3.38
2023-02-18T03:50:46.916Z,3.80
2023-02-18T03:53:19.450Z,2.47
2023-02-18T03:55:52.500Z,2.88
2023-02-18T03:58:24.826Z,2.80
2023-02-18T04:00:57.416Z,2.65
2023-02-18T04:03:29.727Z,2.95
2023-02-18T04:06:02.273Z,2.13
2023-02-18T04:08:34.838Z,2.15
2023-02-18T04:11:08.132Z,2.67
2023-02-18T04:13:40.492Z,2.92
2023-02-18T04:16:13.359Z,2.70
2023-02-18T04:18:45.711Z,2.95
2023-02-18T04:21:17.971Z,3.45
2023-02-18T04:23:50.243Z,3.13
2023-02-18T04:26:23.219Z,3.50
2023-02-18T04:28:55.540Z,4.40
2023-02-18T04:31:27.971Z,3.53
2023-02-18T04:34:00.917Z,4.38
2023-02-18T04:36:33.347Z,4.20
2023-02-18T04:39:05.666Z,4.75
2023-02-18T04:41:38.890Z,3.83
2023-02-18T04:44:11.247Z,5.13
2023-02-18T04:46:43.576Z,4.90
2023-02-18T04:49:15.891Z,5.07
2023-02-18T04:51:48.165Z,5.88
2023-02-18T04:54:20.514Z,5.25
2023-02-18T04:56:53.943Z,6.32
2023-02-18T04:59:26.542Z,6.47
2023-02-18T05:01:58.859Z,5.97
2023-02-18T05:04:38.169Z,5.30
2023-02-18T05:07:10.470Z,4.82
2023-02-18T05:09:42.823Z,6.68
2023-02-18T05:12:15.847Z,7.13
2023-02-18T05:14:48.203Z,7.28
2023-02-18T05:17:20.680Z,6.28
2023-02-18T05:19:53.055Z,5.80
2023-02-18T05:22:25.525Z,4.65
2023-02-18T05:24:57.801Z,5.05
2023-02-18T05:27:30.920Z,4.93
2023-02-18T05:30:03.871Z,4.97
2023-02-18T05:32:36.336Z,5.57
2023-02-18T05:35:08.995Z,6.80
2023-02-18T05:37:41.240Z,5.75
2023-02-18T05:40:13.534Z,5.85
2023-02-18T05:42:46.732Z,6.15
2023-02-18T05:45:18.983Z,5.43
2023-02-18T05:47:51.318Z,4.53
2023-02-18T05:50:23.658Z,6.35
2023-02-18T05:52:56.070Z,5.15
2023-02-18T05:55:28.605Z,5.82
2023-02-18T05:58:01.598Z,7.65
2023-02-18T06:00:33.903Z,6.28
2023-02-18T06:03:06.443Z,9.05
2023-02-18T06:05:38.786Z,7.00
2023-02-18T06:08:11.063Z,4.13
2023-02-18T06:10:43.340Z,6.40
2023-02-18T06:13:16.665Z,6.75
2023-02-18T06:15:50.388Z,5.80
2023-02-18T06:18:23.321Z,5.15
2023-02-18T06:20:55.905Z,4.63
2023-02-18T06:23:28.221Z,7.78
2023-02-18T06:26:01.052Z,7.75
2023-02-18T06:28:33.972Z,23.55
2023-02-18T06:31:06.428Z,11.43
2023-02-18T06:33:38.791Z,5.40
2023-02-18T06:36:12.813Z,3.25
2023-02-18T06:38:45.566Z,5.93
2023-02-18T06:41:17.851Z,5.35
2023-02-18T06:43:50.847Z,5.15
2023-02-18T06:46:23.196Z,7.80
2023-02-18T06:48:55.479Z,5.15
2023-02-18T06:51:27.965Z,4.88
2023-02-18T06:54:00.325Z,5.50
2023-02-18T06:56:33.015Z,4.20
2023-02-18T06:59:05.988Z,4.75
2023-02-18T07:01:38.225Z,6.80
2023-02-18T07:04:10.611Z,7.03
2023-02-18T07:06:43.007Z,9.00
2023-02-18T07:09:15.330Z,6.28
2023-02-18T07:11:47.655Z,7.80
2023-02-18T07:14:20.603Z,5.22
2023-02-18T07:16:52.914Z,5.88
2023-02-18T07:19:25.184Z,6.22
2023-02-18T07:21:57.536Z,7.82
2023-02-18T07:24:29.930Z,10.25
2023-02-18T07:27:02.457Z,5.45
2023-02-18T07:29:35.416Z,6.05
2023-02-18T07:32:07.753Z,7.07
2023-02-18T07:34:40.276Z,6.88
2023-02-18T07:37:12.574Z,5.88
2023-02-18T07:39:45.203Z,6.03
2023-02-18T07:42:17.622Z,5.85
2023-02-18T07:44:50.810Z,7.70
2023-02-18T07:47:23.373Z,9.35
2023-02-18T07:49:55.633Z,8.32
2023-02-18T07:52:27.929Z,7.30
2023-02-18T07:55:00.293Z,5.40
2023-02-18T07:57:32.681Z,5.50
2023-02-18T08:00:07.185Z,7.70
2023-02-18T08:02:44.790Z,8.63
2023-02-18T08:05:17.109Z,7.18
2023-02-18T08:07:49.425Z,6.75
2023-02-18T08:10:21.897Z,6.32
2023-02-18T08:12:54.175Z,6.27
2023-02-18T08:15:27.216Z,6.03
2023-02-18T08:18:00.054Z,5.53
2023-02-18T08:20:36.283Z,5.38
2023-02-18T08:23:10.824Z,10.15
2023-02-18T08:25:45.171Z,8.50
2023-02-18T08:28:17.899Z,5.93
2023-02-18T08:30:52.809Z,6.95
2023-02-18T08:33:25.767Z,6.50
2023-02-18T08:35:58.243Z,6.97
2023-02-18T08:38:30.557Z,5.53
2023-02-18T08:41:04.069Z,7.68
2023-02-18T08:43:36.631Z,7.60
2023-02-18T08:46:15.802Z,5.55
2023-02-18T08:48:48.665Z,5.15
2023-02-18T08:51:22.432Z,5.28
2023-02-18T08:53:54.741Z,6.85
2023-02-18T08:56:27.111Z,5.60
2023-02-18T08:58:59.498Z,6.38
2023-02-18T09:01:32.518Z,6.30
2023-02-18T09:04:05.132Z,5.43
2023-02-18T09:06:38.031Z,10.90
2023-02-18T09:09:10.347Z,9.80
2023-02-18T09:11:43.325Z,9.85
2023-02-18T09:14:16.171Z,9.73
2023-02-18T09:16:49.957Z,6.30
2023-02-18T09:19:22.281Z,6.25
2023-02-18T09:21:56.389Z,5.15
2023-02-18T09:24:37.038Z,7.55
2023-02-18T09:27:11.253Z,5.97
2023-02-18T09:29:44.235Z,4.80
2023-02-18T09:32:28.786Z,7.75
2023-02-18T09:35:05.348Z,6.72
2023-02-18T09:37:39.208Z,4.25
2023-02-18T09:40:23.952Z,4.43
2023-02-18T09:42:57.610Z,3.28
2023-02-18T09:45:30.418Z,4.55
2023-02-18T09:48:05.156Z,2.72
2023-02-18T09:50:37.576Z,2.90
2023-02-18T09:53:12.255Z,4.20
2023-02-18T09:55:45.718Z,3.45
2023-02-18T09:58:20.642Z,2.00
2023-02-18T10:01:00.930Z,2.25
2023-02-18T10:03:33.916Z,2.60
2023-02-18T10:06:10.158Z,2.25
2023-02-18T10:08:45.234Z,2.40
2023-02-18T10:11:23.155Z,1.35
2023-02-18T10:13:56.715Z,2.88
2023-02-18T10:16:29.164Z,3.00
2023-02-18T10:19:11.070Z,2.08
2023-02-18T10:21:43.708Z,2.75
2023-02-18T10:24:27.143Z,2.28
2023-02-18T10:27:00.049Z,1.38
2023-02-18T10:29:33.012Z,2.03
2023-02-18T10:32:16.508Z,1.77
2023-02-18T10:34:53.497Z,1.73
2023-02-18T10:37:51.093Z,1.70
2023-02-18T10:40:29.697Z,1.83
2023-02-18T10:43:10.466Z,1.52
2023-02-18T10:45:48.850Z,2.63
2023-02-18T10:48:45.359Z,0.95
2023-02-18T10:51:22.011Z,1.85
2023-02-18T10:53:55.137Z,1.80
2023-02-18T10:56:40.440Z,1.15
2023-02-18T10:59:18.481Z,1.52
2023-02-18T11:01:56.896Z,1.45
2023-02-18T11:04:36.841Z,1.00
2023-02-18T11:07:15.124Z,2.08
2023-02-18T11:09:50.227Z,1.35
2023-02-18T11:12:25.100Z,2.30
2023-02-18T11:15:15.975Z,1.52
2023-02-18T11:17:50.287Z,1.45
2023-02-18T11:20:29.942Z,1.40
2023-02-18T11:25:58.822Z,1.20
2023-02-18T11:31:11.999Z,1.17
2023-02-18T11:33:49.762Z,1.55
2023-02-18T11:36:24.870Z,1.20
2023-02-18T11:38:59.628Z,1.50
2023-02-18T11:41:35.486Z,3.80
2023-02-18T11:44:19.891Z,2.05
2023-02-18T11:46:57.595Z,1.92
2023-02-18T11:49:33.259Z,1.77
2023-02-18T11:52:16.683Z,1.98
2023-02-18T11:55:02.050Z,2.55
2023-02-18T11:57:39.285Z,1.55
2023-02-18T12:00:20.272Z,1.52
2023-02-18T12:02:56.496Z,2.20
2023-02-18T12:05:32.162Z,1.58
2023-02-18T12:08:10.992Z,1.50
2023-02-18T12:10:47.757Z,1.27
2023-02-18T12:13:26.044Z,2.47
2023-02-18T12:16:10.385Z,2.33
2023-02-18T12:19:05.931Z,2.58
2023-02-18T12:21:54.869Z,1.92
2023-02-18T12:24:43.299Z,2.72
2023-02-18T12:27:22.136Z,1.98
2023-02-18T12:30:10.398Z,3.43
2023-02-18T12:32:48.623Z,1.88
2023-02-18T12:35:37.992Z,3.25
2023-02-18T12:38:30.654Z,2.75
2023-02-18T12:41:16.096Z,1.48
2023-02-18T12:44:00.045Z,1.52
2023-02-18T12:46:43.193Z,3.75
2023-02-18T12:49:36.856Z,3.13
2023-02-18T12:52:22.250Z,1.90
2023-02-18T12:55:17.685Z,5.70
2023-02-18T12:58:01.474Z,1.75
2023-02-18T13:01:01.070Z,2.45
2023-02-18T13:06:38.724Z,1.85
2023-02-18T13:09:20.446Z,1.43
2023-02-18T13:11:56.936Z,1.30
2023-02-18T13:14:33.258Z,1.45
2023-02-18T13:17:10.484Z,2.25
2023-02-18T13:19:49.198Z,2.83
2023-02-18T13:22:24.136Z,2.30
2023-02-18T13:24:59.107Z,1.58
2023-02-18T13:27:38.803Z,1.77
2023-02-18T13:33:03.555Z,2.28
2023-02-18T13:35:42.498Z,2.00
2023-02-18T13:38:49.170Z,2.53
2023-02-18T13:41:22.161Z,3.28
2023-02-18T13:43:54.558Z,2.47
2023-02-18T13:46:27.594Z,2.55
2023-02-18T13:49:11.270Z,2.35
2023-02-18T13:51:47.914Z,1.90
2023-02-18T13:54:24.837Z,3.03
2023-02-18T13:57:02.097Z,2.88
2023-02-18T13:59:39.818Z,1.98
2023-02-18T14:02:36.391Z,3.10
2023-02-18T14:05:24.824Z,2.72
2023-02-18T14:08:10.955Z,3.13
2023-02-18T14:11:18.128Z,3.33
2023-02-18T14:13:54.842Z,2.03
2023-02-18T14:16:47.555Z,2.00
2023-02-18T14:19:28.538Z,2.10
2023-02-18T14:22:27.063Z,2.28
2023-02-18T14:25:04.100Z,5.03
2023-02-18T14:27:38.102Z,3.40
2023-02-18T14:30:19.968Z,3.78
2023-02-18T14:32:56.983Z,2.65
2023-02-18T14:35:35.030Z,4.93
2023-02-18T14:38:22.996Z,5.15
2023-02-18T14:41:18.616Z,5.32
2023-02-18T14:44:19.294Z,3.42
2023-02-18T14:47:06.229Z,3.38
2023-02-18T14:49:42.427Z,4.43
2023-02-18T14:52:21.897Z,6.07
2023-02-18T14:54:55.507Z,3.92
2023-02-18T14:57:36.523Z,6.65
2023-02-18T15:00:16.288Z,4.80
2023-02-18T15:02:50.530Z,6.15
2023-02-18T15:05:24.859Z,3.97
2023-02-18T15:07:59.161Z,4.68
2023-02-18T15:10:41.413Z,6.78
2023-02-18T15:13:18.146Z,5.85
2023-02-18T15:15:53.363Z,5.32
2023-02-18T15:18:31.068Z,6.03
2023-02-18T15:21:05.936Z,4.97
2023-02-18T15:23:40.663Z,4.50
2023-02-18T15:26:15.585Z,3.80
2023-02-18T15:28:59.967Z,4.07
2023-02-18T15:31:38.433Z,5.28
2023-02-18T15:34:29.949Z,7.90
2023-02-18T15:37:04.161Z,3.40
2023-02-18T15:39:38.082Z,3.20
2023-02-18T15:42:19.190Z,3.70
2023-02-18T15:44:55.394Z,3.35
2023-02-18T15:47:28.217Z,3.67
2023-02-18T15:50:03.047Z,5.00
2023-02-18T15:52:38.604Z,9.98
2023-02-18T15:55:14.838Z,10.82
2023-02-18T15:57:49.145Z,10.30
2023-02-18T16:00:27.097Z,13.45
2023-02-18T16:03:04.606Z,19.60
2023-02-18T16:05:38.575Z,23.92
2023-02-18T16:08:14.893Z,27.15
2023-02-18T16:10:52.964Z,29.05
2023-02-18T16:13:28.619Z,21.50
2023-02-18T16:16:01.577Z,34.90
2023-02-18T16:18:38.772Z,52.53
2023-02-18T16:21:25.033Z,17.60
2023-02-18T16:23:59.438Z,18.17
2023-02-18T16:26:40.855Z,53.40
2023-02-18T16:29:15.920Z,34.60
2023-02-18T16:31:48.275Z,22.05
2023-02-18T16:34:20.635Z,16.23
2023-02-18T16:37:07.726Z,18.70
2023-02-18T16:39:40.008Z,15.32
2023-02-18T16:42:13.225Z,15.18
2023-02-18T16:44:47.411Z,15.35
2023-02-18T16:47:20.093Z,16.63
2023-02-18T16:49:53.133Z,11.85
2023-02-18T16:52:25.427Z,11.45
2023-02-18T16:54:57.822Z,15.20
2023-02-18T16:57:30.137Z,10.40
2023-02-18T17:00:04.343Z,10.95
2023-02-18T17:02:36.793Z,8.70
2023-02-18T17:05:25.458Z,16.05
2023-02-18T17:08:04.503Z,17.02
2023-02-18T17:10:36.866Z,15.90
2023-02-18T17:13:13.058Z,15.00
2023-02-18T17:15:48.044Z,13.77
2023-02-18T17:18:20.620Z,15.70
2023-02-18T17:20:53.807Z,12.57
2023-02-18T17:23:26.138Z,13.10
2023-02-18T17:25:58.414Z,9.80
2023-02-18T17:28:30.763Z,12.13
2023-02-18T17:31:04.131Z,10.00
2023-02-18T17:33:36.456Z,6.93
2023-02-18T17:36:09.752Z,8.60
2023-02-18T17:38:42.286Z,10.35
2023-02-18T17:41:14.994Z,13.27
2023-02-18T17:43:47.292Z,10.90
2023-02-18T17:46:20.238Z,10.77
2023-02-18T17:48:52.568Z,13.35
2023-02-18T17:51:28.832Z,10.45
2023-02-18T17:54:01.369Z,10.38
2023-02-18T17:56:35.496Z,9.57
2023-02-18T17:59:07.787Z,8.10
2023-02-18T18:01:41.646Z,7.28
2023-02-18T18:04:15.446Z,10.38
2023-02-18T18:06:49.091Z,11.45
2023-02-18T18:09:21.543Z,13.05
2023-02-18T18:11:53.920Z,16.15
2023-02-18T18:14:26.973Z,14.73
2023-02-18T18:17:01.950Z,14.02
2023-02-18T18:19:34.260Z,16.58
2023-02-18T18:22:07.742Z,10.15
2023-02-18T18:24:40.047Z,8.15
2023-02-18T18:27:12.693Z,8.93
2023-02-18T18:29:44.951Z,10.07
2023-02-18T18:32:17.880Z,11.85
2023-02-18T18:34:50.167Z,11.27
2023-02-18T18:37:22.490Z,14.27
2023-02-18T18:39:54.819Z,10.02
2023-02-18T18:42:27.215Z,9.20
2023-02-18T18:44:59.550Z,8.63
2023-02-18T18:47:32.450Z,11.23
2023-02-18T18:50:05.056Z,6.05
2023-02-18T18:52:37.497Z,15.00
2023-02-18T18:55:28.119Z,11.13
2023-02-18T18:58:00.983Z,13.27
2023-02-18T19:00:36.026Z,9.63
2023-02-18T19:03:11.430Z,11.60
2023-02-18T19:05:44.794Z,10.95
2023-02-18T19:08:19.546Z,12.85
2023-02-18T19:10:54.157Z,11.60
2023-02-18T19:13:29.813Z,8.07
2023-02-18T19:16:07.465Z,6.40
2023-02-18T19:18:40.592Z,7.97
2023-02-18T19:21:12.909Z,6.55
2023-02-18T19:23:45.295Z,5.65
2023-02-18T19:26:17.642Z,7.80
2023-02-18T19:28:49.921Z,19.98
2023-02-18T19:31:23.515Z,8.02
2023-02-18T19:33:56.595Z,15.70
2023-02-18T19:36:28.923Z,9.35
2023-02-18T19:39:01.335Z,7.78
2023-02-18T19:41:33.671Z,4.38
2023-02-18T19:44:05.983Z,3.30
2023-02-18T19:46:38.297Z,3.42
2023-02-18T19:49:11.247Z,5.22
2023-02-18T19:51:43.558Z,4.68
2023-02-18T19:54:15.843Z,5.38
2023-02-18T19:56:48.163Z,5.35
2023-02-18T19:59:20.499Z,5.15
2023-02-18T20:01:52.938Z,6.63
2023-02-18T20:04:25.912Z,5.40
2023-02-18T20:06:58.273Z,5.00
2023-02-18T20:09:30.621Z,4.15
2023-02-18T20:12:04.201Z,5.30
2023-02-18T20:14:43.618Z,4.55
2023-02-18T20:17:16.590Z,5.43
2023-02-18T20:19:49.577Z,4.47
2023-02-18T20:22:22.163Z,3.75
2023-02-18T20:24:54.472Z,6.47
2023-02-18T20:27:26.859Z,5.38
2023-02-18T20:29:59.249Z,4.35
2023-02-18T20:32:33.613Z,5.20
2023-02-18T20:35:07.971Z,4.50
2023-02-18T20:37:40.384Z,4.03
2023-02-18T20:40:12.698Z,4.30
2023-02-18T20:42:45.065Z,3.08
2023-02-18T20:45:17.633Z,2.00
2023-02-18T20:47:49.945Z,2.75
2023-02-18T20:50:23.433Z,3.50
2023-02-18T20:52:55.692Z,3.33
2023-02-18T20:55:28.013Z,2.97
2023-02-18T20:58:00.294Z,2.30
2023-02-18T21:00:32.781Z,3.72
2023-02-18T21:03:05.123Z,3.28
2023-02-18T21:05:38.123Z,2.50
2023-02-18T21:08:10.416Z,3.58
2023-02-18T21:10:42.724Z,2.53
2023-02-18T21:13:14.953Z,3.95
2023-02-18T21:15:47.528Z,2.17
2023-02-18T21:18:19.970Z,2.28
2023-02-18T21:20:53.010Z,4.30
2023-02-18T21:23:25.305Z,3.40
2023-02-18T21:26:02.662Z,2.85
2023-02-18T21:28:36.059Z,4.07
2023-02-18T21:31:16.526Z,4.20
2023-02-18T21:33:48.903Z,9.95
2023-02-18T21:36:22.530Z,21.33
2023-02-18T21:38:56.907Z,14.05
2023-02-18T21:41:29.925Z,6.22
2023-02-18T21:44:02.245Z,9.07
2023-02-18T21:46:35.580Z,8.85
2023-02-18T21:49:09.050Z,10.98
2023-02-18T21:51:56.345Z,6.93
2023-02-18T21:54:30.745Z,3.83
2023-02-18T21:57:04.457Z,2.70
2023-02-18T21:59:36.868Z,4.05
2023-02-18T22:02:15.506Z,2.95
2023-02-18T22:04:49.191Z,2.38
2023-02-18T22:07:24.674Z,2.10
2023-02-18T22:09:56.929Z,2.40
2023-02-18T22:12:31.313Z,2.38
2023-02-18T22:15:04.042Z,2.30
2023-02-18T22:17:36.399Z,2.90
2023-02-18T22:20:09.972Z,2.03
2023-02-18T22:22:42.939Z,2.50
2023-02-18T22:25:15.442Z,3.80
2023-02-18T22:27:47.696Z,2.00
2023-02-18T22:30:20.057Z,1.42
2023-02-18T22:32:52.392Z,1.92
2023-02-18T22:35:25.099Z,1.45
2023-02-18T22:37:58.095Z,2.25
2023-02-18T22:40:30.443Z,5.30
2023-02-18T22:43:02.778Z,2.70
2023-02-18T22:45:36.168Z,1.98
2023-02-18T22:48:08.467Z,1.58
2023-02-18T22:50:40.735Z,1.98
2023-02-18T22:53:13.700Z,2.80
2023-02-18T22:55:45.962Z,2.33
2023-02-18T22:58:18.207Z,2.15
2023-02-18T23:00:50.496Z,2.38
2023-02-18T23:03:22.840Z,1.60
2023-02-18T23:05:55.472Z,1.65
2023-02-18T23:08:28.720Z,2.15
2023-02-18T23:11:01.459Z,2.50
2023-02-18T23:13:33.765Z,2.47
2023-02-18T23:16:08.035Z,2.17
2023-02-18T23:18:40.408Z,1.80
2023-02-18T23:21:17.612Z,1.70
2023-02-18T23:23:52.159Z,2.88
2023-02-18T23:26:25.390Z,1.65
2023-02-18T23:28:57.848Z,2.45
2023-02-18T23:31:30.358Z,1.95
2023-02-18T23:34:03.902Z,2.30
2023-02-18T23:36:36.332Z,2.10
2023-02-18T23:39:11.358Z,2.08
2023-02-18T23:41:44.413Z,2.28
2023-02-18T23:44:18.733Z,2.42
2023-02-18T23:46:51.679Z,1.85
2023-02-18T23:49:25.842Z,1.75
2023-02-18T23:51:58.279Z,2.50
2023-02-18T23:54:31.270Z,2.10
2023-02-18T23:57:03.662Z,2.83
2023-02-18T23:59:36.001Z,1.75
